createdAt,value
2019-02-05T00:00:45.310Z,25.02
2019-02-05T00:03:15.805Z,30.72
2019-02-05T00:05:44.548Z,31.48
2019-02-05T00:08:13.249Z,32.17
2019-02-05T00:10:41.990Z,33.18
2019-02-05T00:13:10.802Z,32.03
2019-02-05T00:15:39.536Z,29.15
2019-02-05T00:18:08.208Z,38.73
2019-02-05T00:20:56.313Z,37.05
2019-02-05T00:23:25.198Z,39.58
2019-02-05T00:26:05.647Z,43.48
2019-02-05T00:28:24.356Z,35.43
2019-02-05T00:30:54.131Z,44.73
2019-02-05T00:33:22.801Z,44.42
2019-02-05T00:35:51.477Z,27.27
2019-02-05T00:38:39.438Z,36.28
2019-02-05T00:41:08.085Z,34.33
2019-02-05T00:43:36.672Z,31.17
2019-02-05T00:46:05.349Z,30.48
2019-02-05T00:48:34.010Z,31.35
2019-02-05T00:51:02.749Z,31.82
2019-02-05T00:53:31.331Z,34.65
2019-02-05T00:56:00.205Z,31.75
2019-02-05T00:58:28.990Z,24.65
2019-02-05T01:00:57.852Z,26.07
2019-02-05T01:03:26.505Z,27.87
2019-02-05T01:05:55.304Z,30.32
2019-02-05T01:08:24.142Z,26.55
2019-02-05T01:10:52.856Z,31.25
2019-02-05T01:13:21.738Z,28.05
2019-02-05T01:15:50.450Z,28.23
2019-02-05T01:18:19.097Z,30.10
2019-02-05T01:20:53.808Z,27.82
2019-02-05T01:23:23.758Z,28.65
2019-02-05T01:25:52.568Z,28.73
2019-02-05T01:28:21.166Z,29.82
2019-02-05T01:30:49.767Z,28.75
2019-02-05T01:33:18.392Z,34.08
2019-02-05T01:35:47.485Z,30.77
2019-02-05T01:38:16.343Z,30.30
2019-02-05T01:40:46.664Z,31.55
2019-02-05T01:43:17.837Z,28.57
2019-02-05T01:45:46.522Z,30.62
2019-02-05T01:52:27.376Z,28.98
2019-02-05T02:18:31.811Z,32.00
2019-02-05T02:21:51.302Z,35.95
2019-02-05T02:41:16.220Z,30.90
2019-02-05T02:43:44.966Z,31.60
2019-02-05T02:46:13.657Z,34.58
2019-02-05T02:48:42.392Z,32.48
2019-02-05T02:51:11.058Z,32.35
2019-02-05T02:53:39.692Z,33.67
2019-02-05T02:56:08.543Z,34.85
2019-02-05T02:58:37.341Z,35.65
2019-02-05T03:01:06.056Z,34.58
2019-02-05T03:03:34.739Z,33.25
2019-02-05T03:06:03.587Z,36.85
2019-02-05T03:08:32.299Z,37.93
2019-02-05T03:11:00.858Z,34.78
2019-02-05T03:13:32.657Z,34.78
2019-02-05T03:16:03.027Z,40.17
2019-02-05T03:18:35.007Z,36.15
2019-02-05T03:21:05.068Z,36.30
2019-02-05T03:23:33.867Z,34.70
2019-02-05T03:26:02.611Z,34.80
2019-02-05T03:28:31.377Z,34.30
2019-02-05T03:31:00.521Z,37.98
2019-02-05T03:33:29.288Z,34.45
2019-02-05T03:35:57.939Z,30.57
2019-02-05T03:38:26.762Z,36.28
2019-02-05T03:41:04.516Z,34.00
2019-02-05T03:43:33.564Z,33.63
2019-02-05T03:46:04.664Z,30.52
2019-02-05T03:48:40.905Z,28.23
2019-02-05T03:51:12.355Z,31.30
2019-02-05T03:54:09.846Z,32.53
2019-02-05T03:57:00.417Z,30.17
2019-02-05T04:00:06.658Z,27.98
2019-02-05T04:02:58.535Z,33.33
2019-02-05T04:05:48.169Z,30.97
2019-02-05T04:08:53.446Z,32.03
2019-02-05T04:15:10.292Z,28.50
2019-02-05T04:18:06.866Z,26.52
2019-02-05T04:21:27.720Z,30.27
2019-02-05T04:24:26.652Z,30.62
2019-02-05T04:28:27.160Z,31.65
2019-02-05T04:30:22.885Z,35.23
2019-02-05T04:32:57.273Z,35.00
2019-02-05T04:35:31.730Z,34.15
2019-02-05T04:38:27.473Z,34.80
2019-02-05T04:41:47.246Z,31.85
2019-02-05T04:44:51.787Z,33.13
2019-02-05T04:50:38.814Z,31.10
2019-02-05T04:53:13.054Z,31.42
2019-02-05T04:56:05.342Z,32.13
2019-02-05T04:58:49.335Z,36.15
2019-02-05T05:01:29.739Z,35.63
2019-02-05T05:04:25.404Z,35.50
2019-02-05T05:07:33.245Z,38.40
2019-02-05T05:10:03.072Z,40.05
2019-02-05T05:12:31.914Z,39.23
2019-02-05T05:15:00.772Z,41.08
2019-02-05T05:26:35.275Z,32.85
2019-02-05T05:29:41.975Z,36.88
2019-02-05T05:32:06.635Z,38.13
2019-02-05T05:34:35.476Z,37.93
2019-02-05T05:37:03.109Z,37.33
2019-02-05T05:39:31.783Z,37.05
2019-02-05T05:42:00.679Z,35.78
2019-02-05T05:44:31.030Z,33.00
2019-02-05T05:46:59.990Z,34.85
2019-02-05T05:49:28.773Z,38.23
2019-02-05T05:51:57.653Z,33.13
2019-02-05T05:54:26.461Z,34.20
2019-02-05T05:56:59.407Z,37.63
2019-02-05T05:59:31.038Z,33.63
2019-02-05T06:05:17.145Z,35.25
2019-02-05T06:07:59.067Z,38.08
2019-02-05T06:10:35.487Z,35.45
2019-02-05T06:16:25.226Z,32.37
2019-02-05T06:19:04.649Z,35.58
2019-02-05T06:21:35.349Z,36.42
2019-02-05T06:24:14.762Z,36.90
2019-02-05T06:26:50.455Z,35.70
2019-02-05T06:29:19.148Z,34.55
2019-02-05T06:31:47.961Z,35.78
2019-02-05T06:34:16.763Z,34.48
2019-02-05T06:36:45.682Z,36.83
2019-02-05T06:39:14.617Z,34.37
2019-02-05T06:41:43.504Z,34.77
2019-02-05T06:44:12.232Z,36.67
2019-02-05T06:46:41.041Z,36.95
2019-02-05T06:49:09.855Z,35.10
2019-02-05T06:51:38.723Z,34.78
2019-02-05T06:54:07.508Z,33.23
2019-02-05T06:56:36.348Z,36.98
2019-02-05T06:59:05.367Z,35.00
2019-02-05T07:01:35.099Z,36.35
2019-02-05T07:04:04.439Z,35.10
2019-02-05T07:06:33.307Z,33.50
2019-02-05T07:09:02.440Z,35.65
2019-02-05T07:11:31.275Z,33.15
2019-02-05T07:14:00.114Z,35.38
2019-02-05T07:16:28.912Z,36.17
2019-02-05T07:18:57.624Z,38.25
2019-02-05T07:21:26.564Z,36.38
2019-02-05T07:23:55.395Z,36.83
2019-02-05T07:26:24.506Z,34.40
2019-02-05T07:29:00.016Z,38.40
2019-02-05T07:31:23.866Z,39.95
2019-02-05T07:33:52.707Z,37.63
2019-02-05T07:36:21.402Z,37.95
2019-02-05T07:42:04.991Z,37.07
2019-02-05T07:47:33.701Z,39.30
2019-02-05T07:50:02.601Z,39.10
2019-02-05T07:52:35.502Z,34.40
2019-02-05T07:55:05.569Z,37.00
2019-02-05T07:57:34.352Z,36.63
2019-02-05T08:00:05.046Z,33.07
2019-02-05T08:02:33.804Z,33.80
2019-02-05T08:05:02.635Z,34.23
2019-02-05T08:16:38.917Z,32.83
2019-02-05T08:19:08.466Z,24.83
2019-02-05T08:21:44.905Z,30.00
2019-02-05T08:24:09.318Z,25.60
2019-02-05T08:26:48.741Z,24.27
2019-02-05T08:29:29.462Z,26.97
2019-02-05T08:32:00.321Z,30.00
2019-02-05T08:34:29.313Z,31.35
2019-02-05T08:37:02.919Z,28.33
2019-02-05T08:39:31.799Z,39.23
2019-02-05T08:42:00.663Z,26.70
2019-02-05T08:44:29.555Z,26.87
2019-02-05T08:50:23.374Z,28.70
2019-02-05T08:55:54.375Z,27.63
2019-02-05T08:58:30.627Z,25.87
2019-02-05T09:01:25.074Z,26.23
2019-02-05T09:03:41.085Z,43.13
2019-02-05T09:06:09.800Z,44.37
2019-02-05T09:08:38.657Z,34.93
2019-02-05T09:11:07.519Z,39.10
2019-02-05T09:13:36.301Z,36.50
2019-02-05T09:16:05.085Z,39.47
2019-02-05T09:18:33.688Z,31.97
2019-02-05T09:21:02.529Z,31.03
2019-02-05T09:23:31.308Z,27.70
2019-02-05T09:26:00.112Z,28.00
2019-02-05T09:28:28.952Z,26.40
2019-02-05T09:30:57.792Z,27.90
2019-02-05T09:33:26.593Z,24.10
2019-02-05T09:35:55.223Z,28.00
2019-02-05T09:38:24.024Z,25.60
2019-02-05T09:40:52.897Z,27.37
2019-02-05T09:43:23.813Z,26.97
2019-02-05T09:45:52.453Z,24.87
2019-02-05T09:48:21.256Z,25.23
2019-02-05T09:50:49.986Z,24.70
2019-02-05T09:53:18.753Z,21.67
2019-02-05T09:55:47.567Z,21.87
2019-02-05T09:58:18.006Z,22.07
2019-02-05T10:00:48.480Z,22.63
2019-02-05T10:03:17.281Z,25.70
2019-02-05T10:05:46.100Z,28.30
2019-02-05T10:08:14.801Z,24.17
2019-02-05T10:10:43.630Z,23.63
2019-02-05T10:13:15.775Z,22.97
2019-02-05T10:15:47.804Z,38.77
2019-02-05T10:18:18.161Z,21.57
2019-02-05T10:20:49.666Z,24.43
2019-02-05T10:23:20.587Z,21.37
2019-02-05T10:25:52.715Z,23.77
2019-02-05T10:28:21.626Z,19.97
2019-02-05T10:30:50.505Z,20.87
2019-02-05T10:33:19.367Z,19.63
2019-02-05T10:35:48.275Z,17.83
2019-02-05T10:38:17.378Z,20.90
2019-02-05T10:40:47.322Z,20.67
2019-02-05T10:43:16.209Z,18.70
2019-02-05T10:45:45.419Z,21.20
2019-02-05T10:48:14.300Z,18.10
2019-02-05T10:50:51.347Z,19.00
2019-02-05T10:53:22.892Z,20.17
2019-02-05T10:55:57.061Z,15.90
2019-02-05T10:58:25.502Z,19.90
2019-02-05T11:00:54.273Z,19.40
2019-02-05T11:03:23.106Z,19.00
2019-02-05T11:05:51.934Z,19.50
2019-02-05T11:08:20.575Z,21.17
2019-02-05T11:11:10.562Z,20.10
2019-02-05T11:13:39.437Z,20.83
2019-02-05T11:16:08.081Z,22.07
2019-02-05T11:18:36.859Z,24.17
2019-02-05T11:21:05.575Z,18.53
2019-02-05T11:23:34.311Z,18.63
2019-02-05T11:26:03.105Z,19.97
2019-02-05T11:28:31.753Z,19.40
2019-02-05T11:31:00.368Z,24.67
2019-02-05T11:33:29.101Z,24.67
2019-02-05T11:35:57.793Z,24.60
2019-02-05T11:38:26.533Z,23.53
2019-02-05T11:41:02.644Z,25.87
2019-02-05T11:43:28.638Z,24.70
2019-02-05T11:45:57.784Z,21.77
2019-02-05T11:48:26.541Z,23.50
2019-02-05T11:50:55.181Z,25.03
2019-02-05T11:53:23.927Z,23.60
2019-02-05T11:55:52.602Z,23.40
2019-02-05T11:58:21.183Z,23.00
2019-02-05T12:00:58.433Z,20.63
2019-02-05T12:03:27.197Z,20.33
2019-02-05T12:05:55.929Z,19.30
2019-02-05T12:08:24.682Z,23.13
2019-02-05T12:10:53.353Z,23.57
2019-02-05T12:13:40.322Z,21.50
2019-02-05T12:16:12.274Z,21.73
2019-02-05T12:18:48.440Z,31.17
2019-02-05T12:21:19.982Z,20.77
2019-02-05T12:23:48.781Z,24.67
2019-02-05T12:26:19.357Z,22.37
2019-02-05T12:28:48.591Z,22.23
2019-02-05T12:31:17.499Z,21.70
2019-02-05T12:33:46.505Z,23.93
2019-02-05T12:36:21.135Z,21.67
2019-02-05T12:39:02.050Z,20.33
2019-02-05T12:41:31.202Z,25.43
2019-02-05T12:44:00.024Z,23.87
2019-02-05T12:46:28.714Z,23.83
2019-02-05T12:48:57.553Z,20.03
2019-02-05T12:51:26.304Z,22.73
2019-02-05T12:53:57.463Z,22.47
2019-02-05T12:56:26.326Z,25.70
2019-02-05T12:58:55.107Z,22.17
2019-02-05T13:01:23.864Z,22.70
2019-02-05T13:03:52.726Z,23.43
2019-02-05T13:06:21.660Z,23.40
2019-02-05T13:08:50.353Z,23.03
2019-02-05T13:11:19.296Z,22.30
2019-02-05T13:13:48.572Z,25.47
2019-02-05T13:16:17.279Z,22.10
2019-02-05T13:18:46.133Z,22.60
2019-02-05T13:21:14.785Z,23.47
2019-02-05T13:23:43.399Z,22.17
2019-02-05T13:26:12.704Z,23.00
2019-02-05T13:28:41.802Z,23.87
2019-02-05T13:31:10.605Z,22.03
2019-02-05T13:33:39.394Z,23.73
2019-02-05T13:36:10.038Z,28.20
2019-02-05T13:38:38.906Z,27.13
2019-02-05T13:41:07.644Z,26.43
2019-02-05T13:43:36.804Z,27.70
2019-02-05T13:46:06.240Z,26.20
2019-02-05T13:48:34.932Z,21.90
2019-02-05T13:51:03.859Z,23.50
2019-02-05T13:53:32.779Z,32.17
2019-02-05T13:56:01.460Z,29.50
2019-02-05T13:58:30.717Z,23.93
2019-02-05T14:00:59.499Z,28.00
2019-02-05T14:03:28.322Z,23.87
2019-02-05T14:05:57.170Z,20.93
2019-02-05T14:08:25.893Z,31.67
2019-02-05T14:10:55.405Z,26.10
2019-02-05T14:13:26.711Z,34.00
2019-02-05T14:15:55.547Z,26.43
2019-02-05T14:18:24.304Z,28.80
2019-02-05T14:20:53.014Z,26.23
2019-02-05T14:23:27.275Z,28.77
2019-02-05T14:25:56.525Z,30.83
2019-02-05T14:28:31.139Z,24.93
2019-02-05T14:31:02.950Z,20.77
2019-02-05T14:33:33.248Z,24.53
2019-02-05T14:36:02.017Z,22.90
2019-02-05T14:38:30.796Z,19.77
2019-02-05T14:41:02.259Z,25.03
2019-02-05T14:43:33.930Z,23.47
2019-02-05T14:46:03.862Z,26.53
2019-02-05T14:48:41.920Z,25.90
2019-02-05T14:51:11.971Z,26.37
2019-02-05T14:53:43.870Z,25.10
2019-02-05T14:56:12.803Z,26.87
2019-02-05T14:58:41.612Z,27.90
2019-02-05T15:01:10.617Z,31.63
2019-02-05T15:03:39.441Z,31.13
2019-02-05T15:06:08.237Z,26.37
2019-02-05T15:08:37.477Z,27.67
2019-02-05T15:11:09.316Z,26.57
2019-02-05T15:13:38.725Z,25.37
2019-02-05T15:16:07.756Z,25.90
2019-02-05T15:18:36.578Z,26.83
2019-02-05T15:21:05.417Z,28.93
2019-02-05T15:23:34.659Z,25.83
2019-02-05T15:26:07.758Z,26.87
2019-02-05T15:28:36.860Z,27.73
2019-02-05T15:31:08.310Z,28.97
2019-02-05T15:33:45.871Z,28.40
2019-02-05T15:36:16.364Z,29.10
2019-02-05T15:38:48.352Z,29.67
2019-02-05T15:41:21.833Z,24.80
2019-02-05T15:46:58.403Z,28.07
2019-02-05T15:50:05.774Z,27.47
2019-02-05T15:52:14.688Z,34.07
2019-02-05T15:54:42.784Z,31.43
2019-02-05T15:57:11.549Z,28.47
2019-02-05T15:59:40.549Z,31.37
2019-02-05T16:02:09.535Z,30.23
2019-02-05T16:04:38.351Z,44.10
2019-02-05T16:07:07.113Z,33.43
2019-02-05T16:09:35.989Z,26.23
2019-02-05T16:12:05.111Z,26.80
2019-02-05T16:14:33.904Z,26.33
2019-02-05T16:17:02.813Z,25.63
2019-02-05T16:19:31.642Z,25.37
2019-02-05T16:22:00.501Z,33.27
2019-02-05T16:24:29.536Z,28.33
2019-02-05T16:26:58.332Z,27.27
2019-02-05T16:29:27.033Z,24.87
2019-02-05T16:31:55.853Z,26.37
2019-02-05T16:34:38.258Z,24.73
2019-02-05T16:37:04.867Z,21.97
2019-02-05T16:39:33.618Z,24.33
2019-02-05T16:42:02.406Z,26.80
2019-02-05T16:44:31.256Z,27.33
2019-02-05T16:47:00.041Z,26.87
2019-02-05T16:49:29.002Z,26.57
2019-02-05T16:51:57.830Z,27.70
2019-02-05T16:54:26.615Z,26.77
2019-02-05T16:56:55.442Z,29.43
2019-02-05T16:59:24.301Z,32.50
2019-02-05T17:01:53.100Z,32.80
2019-02-05T17:04:21.893Z,27.30
2019-02-05T17:06:50.742Z,27.07
2019-02-05T17:09:19.966Z,27.93
2019-02-05T17:11:48.869Z,25.53
2019-02-05T17:14:17.773Z,26.27
2019-02-05T17:16:47.166Z,34.20
2019-02-05T17:19:16.028Z,27.83
2019-02-05T17:21:44.817Z,27.47
2019-02-05T17:24:14.266Z,30.03
2019-02-05T17:26:43.090Z,31.57
2019-02-05T17:29:11.738Z,31.80
2019-02-05T17:31:40.737Z,31.00
2019-02-05T17:34:09.464Z,33.07
2019-02-05T17:36:38.341Z,29.30
2019-02-05T17:39:10.639Z,31.10
2019-02-05T17:41:39.403Z,28.50
2019-02-05T17:44:08.304Z,32.70
2019-02-05T17:46:36.976Z,28.83
2019-02-05T17:49:05.817Z,29.50
2019-02-05T17:51:34.472Z,28.23
2019-02-05T17:54:03.364Z,25.30
2019-02-05T17:56:31.941Z,28.23
2019-02-05T17:59:00.635Z,27.50
2019-02-05T18:01:29.363Z,29.43
2019-02-05T18:03:58.059Z,29.50
2019-02-05T18:06:26.721Z,28.73
2019-02-05T18:08:55.555Z,28.77
2019-02-05T18:11:24.584Z,28.53
2019-02-05T18:13:53.261Z,28.00
2019-02-05T18:16:22.131Z,29.30
2019-02-05T18:18:50.883Z,26.23
2019-02-05T18:21:19.488Z,26.90
2019-02-05T18:23:48.388Z,28.70
2019-02-05T18:26:17.535Z,27.97
2019-02-05T18:28:46.460Z,23.33
2019-02-05T18:31:15.227Z,25.20
2019-02-05T18:33:44.125Z,22.50
2019-02-05T18:36:12.882Z,24.43
2019-02-05T18:38:41.680Z,25.03
2019-02-05T18:41:10.371Z,23.00
2019-02-05T18:43:39.228Z,23.97
2019-02-05T18:46:08.151Z,23.80
2019-02-05T18:48:36.926Z,23.10
2019-02-05T18:51:05.949Z,23.43
2019-02-05T18:53:34.899Z,24.17
2019-02-05T18:56:04.730Z,24.30
2019-02-05T18:58:33.770Z,23.97
2019-02-05T19:01:02.687Z,25.93
2019-02-05T19:03:31.673Z,27.47
2019-02-05T19:06:00.847Z,26.13
2019-02-05T19:08:29.832Z,28.07
2019-02-05T19:10:58.940Z,33.73
2019-02-05T19:13:28.303Z,32.73
2019-02-05T19:15:57.342Z,33.27
2019-02-05T19:18:26.554Z,34.13
2019-02-05T19:20:55.460Z,30.03
2019-02-05T19:23:24.485Z,32.80
2019-02-05T19:26:04.147Z,30.73
2019-02-05T19:28:33.636Z,27.60
2019-02-05T19:31:04.129Z,31.27
2019-02-05T19:33:33.432Z,34.07
2019-02-05T19:36:02.295Z,38.27
2019-02-05T19:38:31.249Z,36.20
2019-02-05T19:41:00.804Z,32.03
2019-02-05T19:43:29.817Z,39.80
2019-02-05T19:46:06.306Z,37.50
2019-02-05T19:48:42.106Z,34.77
2019-02-05T19:51:11.492Z,40.33
2019-02-05T19:53:40.266Z,42.13
2019-02-05T19:56:09.439Z,59.03
2019-02-05T19:58:39.003Z,38.55
2019-02-05T20:01:08.055Z,32.43
2019-02-05T20:03:38.936Z,41.93
2019-02-05T20:06:07.371Z,35.52
2019-02-05T20:08:36.294Z,34.10
2019-02-05T20:11:08.362Z,34.60
2019-02-05T20:13:40.334Z,38.15
2019-02-05T20:16:08.292Z,34.10
2019-02-05T20:18:37.548Z,33.17
2019-02-05T20:21:14.023Z,32.23
2019-02-05T20:23:43.058Z,34.03
2019-02-05T20:26:12.250Z,36.42
2019-02-05T20:28:41.506Z,34.60
2019-02-05T20:31:10.664Z,37.00
2019-02-05T20:33:49.707Z,35.50
2019-02-05T20:36:10.169Z,28.25
2019-02-05T20:38:39.288Z,38.55
2019-02-05T20:41:08.562Z,37.28
2019-02-05T20:43:38.082Z,35.45
2019-02-05T20:46:07.186Z,34.37
2019-02-05T20:48:36.199Z,31.03
2019-02-05T20:51:05.618Z,41.68
2019-02-05T20:53:34.623Z,51.83
2019-02-05T20:56:03.528Z,57.33
2019-02-05T20:58:32.395Z,34.08
2019-02-05T21:01:01.478Z,38.35
2019-02-05T21:03:30.395Z,42.97
2019-02-05T21:05:59.155Z,40.30
2019-02-05T21:08:28.427Z,47.05
2019-02-05T21:10:57.110Z,39.83
2019-02-05T21:13:25.918Z,40.78
2019-02-05T21:15:54.704Z,37.25
2019-02-05T21:18:24.641Z,44.18
2019-02-05T21:20:53.328Z,40.85
2019-02-05T21:23:22.216Z,36.70
2019-02-05T21:25:51.033Z,37.05
2019-02-05T21:28:19.860Z,35.50
2019-02-05T21:30:48.514Z,33.47
2019-02-05T21:33:19.038Z,39.37
2019-02-05T21:35:47.795Z,38.78
2019-02-05T21:38:16.963Z,37.20
2019-02-05T21:40:45.565Z,36.77
2019-02-05T21:43:14.678Z,35.98
2019-02-05T21:45:43.264Z,39.00
2019-02-05T21:48:14.955Z,35.23
2019-02-05T21:50:44.731Z,39.03
2019-02-05T21:53:13.404Z,38.17
2019-02-05T21:55:42.662Z,39.78
2019-02-05T21:58:12.551Z,42.73
2019-02-05T22:00:44.506Z,40.73
2019-02-05T22:03:13.183Z,41.85
2019-02-05T22:05:42.673Z,39.42
2019-02-05T22:08:11.437Z,40.43
2019-02-05T22:10:40.540Z,39.38
2019-02-05T22:13:09.897Z,42.62
2019-02-05T22:15:42.387Z,35.13
2019-02-05T22:18:11.677Z,35.90
2019-02-05T22:20:41.176Z,38.13
2019-02-05T22:23:10.274Z,40.63
2019-02-05T22:25:40.487Z,36.50
2019-02-05T22:28:09.660Z,40.15
2019-02-05T22:30:39.528Z,39.18
2019-02-05T22:33:11.369Z,37.95
2019-02-05T22:35:40.767Z,40.23
2019-02-05T22:38:09.958Z,39.40
2019-02-05T22:40:44.745Z,38.33
2019-02-05T22:43:14.096Z,39.13
2019-02-05T22:45:43.667Z,34.93
2019-02-05T22:48:12.352Z,36.08
2019-02-05T22:50:44.058Z,38.25
2019-02-05T22:53:33.768Z,36.05
2019-02-05T22:56:04.851Z,38.38
2019-02-05T22:58:33.581Z,41.28
2019-02-05T23:01:24.703Z,40.85
2019-02-05T23:03:56.509Z,38.08
2019-02-05T23:06:32.021Z,38.63
2019-02-05T23:09:16.258Z,32.50
2019-02-05T23:12:16.079Z,36.73
2019-02-05T23:14:51.826Z,39.42
2019-02-05T23:17:21.289Z,35.43
2019-02-05T23:19:50.656Z,31.60
2019-02-05T23:22:21.385Z,39.67
2019-02-05T23:24:50.140Z,38.53
2019-02-05T23:27:18.826Z,36.27
2019-02-05T23:29:47.556Z,40.92
2019-02-05T23:32:16.247Z,42.13
2019-02-05T23:34:44.992Z,40.75
2019-02-05T23:37:16.186Z,40.33
2019-02-05T23:39:44.778Z,39.33
2019-02-05T23:42:13.388Z,37.00
2019-02-05T23:44:42.171Z,32.13
2019-02-05T23:47:10.856Z,37.60
2019-02-05T23:49:39.521Z,36.30
2019-02-05T23:52:08.247Z,37.95
2019-02-05T23:54:36.909Z,34.83
2019-02-05T23:57:05.659Z,36.65
2019-02-05T23:59:34.265Z,37.35
